QFA33 YPPH-LFPG
Flight info
| Callsign | QFA33 |
|---|---|
| Flight time | N/A |
| Altitude | 32000 |
| Route | AVNEX N752 POKIP DCT 2542S11109E 2247S10823E 2025S10556E 1901S10427E 1458S10007E 1138S09641E 0733S09238E/N0501F340 0456S09015E DCT DOGAR DCT 0227N08423E 0635N08103E DCT ANSUL/N0497F350 A465 MMV/N0493F360 Q24 PUKES P628 VIKIT/N0488F380 P628 RK G202 ZB L750 RANAH B449 INRAK A240 KRS/N0481F400 B143 TUNEK A909 RODAR N644 ADEKI DCT LAMUS DCT SARPI UM10 GOKPA UL746 ODERO DCT LUGEB DCT DEGET DCT ABETI DCT RENKA L610 STAUB/N0423F240 L610 MAMOR DCT ASPAT DCT VIBOM DCT BETEX DCT IDOSA DCT TOLVU DCT RAPOR DCT VEDUS |
| Aircraft | B772/H-SDE2E3FGHIJ5LORVWXY/LB1D1 |
Departure
| Time | N/A |
|---|---|
| Airport | Perth International Airport (YPPH) |
Arrival
| Time | 2026-05-04 05:54 |
|---|---|
| Airport | Charles de Gaulle International Airport (LFPG) |
| Time | Latitude | Longitude | Altitude | Speed | Heading |
|---|---|---|---|---|---|
| 2026-05-04 04:57 | 48.99152 | 11.72527 | 40032 ft | 462 kts | 285° |
| 2026-05-04 04:57 | 49.00129 | 11.67866 | 40037 ft | 462 kts | 285° |
| 2026-05-04 04:57 | 49.02075 | 11.58549 | 40038 ft | 462 kts | 285° |
| 2026-05-04 04:58 | 49.04014 | 11.49220 | 40034 ft | 461 kts | 285° |
| 2026-05-04 04:58 | 49.05944 | 11.39895 | 40033 ft | 461 kts | 285° |
| 2026-05-04 04:59 | 49.07866 | 11.30561 | 40045 ft | 461 kts | 285° |
| 2026-05-04 04:59 | 49.09782 | 11.21213 | 40052 ft | 461 kts | 285° |
| 2026-05-04 05:00 | 49.11687 | 11.11874 | 40047 ft | 461 kts | 285° |
| 2026-05-04 05:01 | 49.14533 | 10.97841 | 40058 ft | 461 kts | 285° |
| 2026-05-04 05:01 | 49.16420 | 10.88478 | 40061 ft | 461 kts | 285° |
| 2026-05-04 05:02 | 49.18289 | 10.79167 | 40060 ft | 461 kts | 285° |
| 2026-05-04 05:02 | 49.20148 | 10.69778 | 40064 ft | 461 kts | 284° |
| 2026-05-04 05:03 | 49.21867 | 10.60255 | 40057 ft | 461 kts | 283° |
| 2026-05-04 05:04 | 49.25177 | 10.41381 | 40053 ft | 461 kts | 283° |
| 2026-05-04 05:04 | 49.26847 | 10.31909 | 40045 ft | 460 kts | 283° |
| 2026-05-04 05:06 | 49.33447 | 9.94044 | 40025 ft | 459 kts | 283° |
| 2026-05-04 05:07 | 49.35077 | 9.84564 | 40022 ft | 459 kts | 282° |
| 2026-05-04 05:07 | 49.36695 | 9.75103 | 40017 ft | 459 kts | 282° |
| 2026-05-04 05:09 | 49.43884 | 9.32418 | 40019 ft | 458 kts | 282° |
| 2026-05-04 05:10 | 49.45457 | 9.22937 | 40026 ft | 458 kts | 282° |
| 2026-05-04 05:10 | 49.47014 | 9.13451 | 40024 ft | 457 kts | 281° |
| 2026-05-04 05:11 | 49.48373 | 9.03961 | 40021 ft | 456 kts | 279° |
| 2026-05-04 05:11 | 49.49661 | 8.94403 | 40029 ft | 456 kts | 279° |
| 2026-05-04 05:12 | 49.50955 | 8.84858 | 40020 ft | 456 kts | 279° |
| 2026-05-04 05:12 | 49.52259 | 8.75315 | 40030 ft | 455 kts | 279° |
| 2026-05-04 05:13 | 49.53562 | 8.65770 | 40027 ft | 455 kts | 279° |
| 2026-05-04 05:13 | 49.54857 | 8.56223 | 40022 ft | 456 kts | 279° |
| 2026-05-04 05:14 | 49.56143 | 8.46668 | 40025 ft | 455 kts | 279° |
| 2026-05-04 05:14 | 49.57422 | 8.37106 | 40021 ft | 455 kts | 279° |
| 2026-05-04 05:15 | 49.58690 | 8.27555 | 40019 ft | 455 kts | 279° |
| 2026-05-04 05:15 | 49.59953 | 8.17988 | 40015 ft | 455 kts | 279° |
| 2026-05-04 05:16 | 49.61207 | 8.08416 | 40015 ft | 455 kts | 278° |
| 2026-05-04 05:16 | 49.62454 | 7.98838 | 40014 ft | 456 kts | 278° |
| 2026-05-04 05:17 | 49.63693 | 7.89251 | 40015 ft | 455 kts | 278° |
| 2026-05-04 05:17 | 49.64915 | 7.79729 | 40013 ft | 456 kts | 278° |
| 2026-05-04 05:18 | 49.66139 | 7.70126 | 40009 ft | 456 kts | 278° |
| 2026-05-04 05:18 | 49.67354 | 7.60533 | 40014 ft | 455 kts | 278° |
| 2026-05-04 05:19 | 49.68562 | 7.50920 | 40012 ft | 455 kts | 278° |
| 2026-05-04 05:19 | 49.69762 | 7.41303 | 40006 ft | 455 kts | 278° |
| 2026-05-04 05:20 | 49.70953 | 7.31696 | 40004 ft | 455 kts | 278° |
| 2026-05-04 05:20 | 49.72136 | 7.22080 | 39997 ft | 456 kts | 277° |
| 2026-05-04 05:21 | 49.73312 | 7.12453 | 39992 ft | 456 kts | 277° |
| 2026-05-04 05:21 | 49.74479 | 7.02829 | 39995 ft | 456 kts | 277° |
| 2026-05-04 05:22 | 49.75640 | 6.93181 | 39989 ft | 456 kts | 277° |
| 2026-05-04 05:22 | 49.76793 | 6.83529 | 39988 ft | 457 kts | 277° |
| 2026-05-04 05:23 | 49.77940 | 6.73854 | 39984 ft | 458 kts | 277° |
| 2026-05-04 05:23 | 49.79081 | 6.64164 | 39990 ft | 458 kts | 277° |
| 2026-05-04 05:24 | 49.80213 | 6.54491 | 39983 ft | 459 kts | 277° |
| 2026-05-04 05:24 | 49.81030 | 6.44724 | 39980 ft | 456 kts | 268° |
| 2026-05-04 05:25 | 49.80660 | 6.34977 | 39991 ft | 452 kts | 258° |
| 2026-05-04 05:25 | 49.79416 | 6.25444 | 39996 ft | 452 kts | 255° |
| 2026-05-04 05:26 | 49.78094 | 6.15919 | 39993 ft | 453 kts | 256° |
| 2026-05-04 05:26 | 49.76806 | 6.06379 | 39996 ft | 453 kts | 256° |
| 2026-05-04 05:28 | 49.70021 | 5.69032 | 39987 ft | 452 kts | 248° |
| 2026-05-04 05:29 | 49.67861 | 5.59907 | 39985 ft | 452 kts | 248° |
| 2026-05-04 05:29 | 49.65711 | 5.50772 | 39987 ft | 453 kts | 248° |
| 2026-05-04 05:31 | 49.59411 | 5.19764 | 35263 ft | 439 kts | 259° |
| 2026-05-04 05:31 | 49.59121 | 5.15061 | 34317 ft | 444 kts | 264° |
| 2026-05-04 05:32 | 49.59106 | 5.10283 | 33236 ft | 446 kts | 267° |
| 2026-05-04 05:32 | 49.59173 | 5.05491 | 32118 ft | 447 kts | 267° |
| 2026-05-04 05:32 | 49.59254 | 5.00703 | 31014 ft | 448 kts | 267° |
| 2026-05-04 05:33 | 49.59375 | 4.91202 | 29344 ft | 438 kts | 266° |
| 2026-05-04 05:33 | 49.59416 | 4.86540 | 28541 ft | 431 kts | 266° |
| 2026-05-04 05:33 | 49.59450 | 4.81966 | 28054 ft | 420 kts | 266° |
| 2026-05-04 05:33 | 49.59484 | 4.77568 | 27848 ft | 403 kts | 266° |
| 2026-05-04 05:34 | 49.59509 | 4.73232 | 27286 ft | 406 kts | 265° |
| 2026-05-04 05:34 | 49.59526 | 4.68833 | 26766 ft | 413 kts | 265° |
| 2026-05-04 05:34 | 49.59543 | 4.64415 | 26213 ft | 412 kts | 265° |
| 2026-05-04 05:34 | 49.59561 | 4.60011 | 25681 ft | 412 kts | 265° |
| 2026-05-04 05:35 | 49.59578 | 4.55580 | 25148 ft | 412 kts | 266° |
| 2026-05-04 05:35 | 49.59589 | 4.52660 | 24796 ft | 412 kts | 265° |
| 2026-05-04 05:35 | 49.59605 | 4.48258 | 24265 ft | 412 kts | 266° |
| 2026-05-04 05:35 | 49.59618 | 4.43844 | 23735 ft | 411 kts | 266° |
| 2026-05-04 05:36 | 49.59630 | 4.39440 | 23128 ft | 411 kts | 266° |
| 2026-05-04 05:36 | 49.59640 | 4.35044 | 22537 ft | 407 kts | 266° |
| 2026-05-04 05:36 | 49.59652 | 4.29327 | 21841 ft | 399 kts | 266° |
| 2026-05-04 05:36 | 49.59657 | 4.26449 | 21476 ft | 396 kts | 266° |
| 2026-05-04 05:37 | 49.59664 | 4.20866 | 20793 ft | 392 kts | 266° |
| 2026-05-04 05:37 | 49.59666 | 4.18038 | 20449 ft | 390 kts | 267° |
| 2026-05-04 05:37 | 49.59667 | 4.12513 | 19789 ft | 387 kts | 267° |
| 2026-05-04 05:38 | 49.59156 | 4.05760 | 18944 ft | 377 kts | 247° |
| 2026-05-04 05:38 | 49.57908 | 4.02227 | 18482 ft | 376 kts | 235° |
| 2026-05-04 05:38 | 49.56470 | 3.98908 | 17969 ft | 378 kts | 235° |
| 2026-05-04 05:38 | 49.54989 | 3.95498 | 17404 ft | 377 kts | 235° |
| 2026-05-04 05:39 | 49.53564 | 3.92183 | 16915 ft | 376 kts | 236° |
| 2026-05-04 05:39 | 49.50720 | 3.85484 | 15922 ft | 370 kts | 236° |
| 2026-05-04 05:39 | 49.49330 | 3.82195 | 15461 ft | 365 kts | 236° |
| 2026-05-04 05:40 | 49.46961 | 3.75494 | 14490 ft | 350 kts | 255° |
| 2026-05-04 05:40 | 49.46422 | 3.71802 | 14073 ft | 357 kts | 256° |
| 2026-05-04 05:40 | 49.45835 | 3.68074 | 13582 ft | 360 kts | 255° |
| 2026-05-04 05:41 | 49.45214 | 3.64354 | 13066 ft | 358 kts | 255° |
| 2026-05-04 05:41 | 49.44591 | 3.60686 | 12714 ft | 350 kts | 254° |
| 2026-05-04 05:41 | 49.43982 | 3.57106 | 12418 ft | 345 kts | 254° |
| 2026-05-04 05:41 | 49.43376 | 3.53545 | 12124 ft | 343 kts | 254° |
| 2026-05-04 05:42 | 49.42771 | 3.50001 | 11833 ft | 344 kts | 254° |
| 2026-05-04 05:42 | 49.41941 | 3.46584 | 11530 ft | 344 kts | 238° |
| 2026-05-04 05:42 | 49.40380 | 3.43817 | 11279 ft | 341 kts | 218° |
| 2026-05-04 05:42 | 49.38402 | 3.41902 | 10982 ft | 331 kts | 208° |
| 2026-05-04 05:43 | 49.36410 | 3.40236 | 10684 ft | 322 kts | 208° |
| 2026-05-04 05:43 | 49.34465 | 3.38613 | 10404 ft | 314 kts | 208° |
| 2026-05-04 05:43 | 49.32577 | 3.37011 | 10156 ft | 306 kts | 208° |
| 2026-05-04 05:45 | 49.21253 | 3.25602 | 8454 ft | 262 kts | 216° |
| 2026-05-04 05:45 | 49.19803 | 3.23930 | 8231 ft | 261 kts | 216° |
| 2026-05-04 05:47 | 49.09969 | 3.11938 | 6631 ft | 259 kts | 230° |
| 2026-05-04 05:47 | 49.08849 | 3.09776 | 6369 ft | 260 kts | 231° |
| 2026-05-04 05:47 | 49.07745 | 3.07642 | 6117 ft | 258 kts | 231° |
| 2026-05-04 05:48 | 49.06629 | 3.05515 | 5823 ft | 256 kts | 231° |
| 2026-05-04 05:48 | 49.05512 | 3.03415 | 5576 ft | 253 kts | 230° |
| 2026-05-04 05:48 | 49.04404 | 3.01353 | 5311 ft | 250 kts | 230° |
| 2026-05-04 05:48 | 49.03307 | 2.99323 | 5067 ft | 247 kts | 230° |
| 2026-05-04 05:49 | 49.02221 | 2.97316 | 4827 ft | 243 kts | 231° |
| 2026-05-04 05:49 | 49.01571 | 2.95741 | 4625 ft | 236 kts | 249° |
| 2026-05-04 05:49 | 49.01273 | 2.93342 | 4544 ft | 226 kts | 263° |
| 2026-05-04 05:49 | 49.01124 | 2.90965 | 4270 ft | 225 kts | 264° |
| 2026-05-04 05:51 | 49.00328 | 2.75839 | 2379 ft | 174 kts | 264° |
| 2026-05-04 05:51 | 49.00226 | 2.74119 | 2133 ft | 154 kts | 265° |
| 2026-05-04 05:52 | 49.00143 | 2.72583 | 1932 ft | 142 kts | 265° |
| 2026-05-04 05:52 | 49.00064 | 2.71107 | 1759 ft | 139 kts | 265° |
| 2026-05-04 05:52 | 48.99986 | 2.69632 | 1580 ft | 141 kts | 265° |
| 2026-05-04 05:52 | 48.99907 | 2.68148 | 1390 ft | 141 kts | 265° |
| 2026-05-04 05:53 | 48.99828 | 2.66666 | 1186 ft | 140 kts | 265° |
| 2026-05-04 05:54 | 48.99350 | 2.57639 | 362 ft | 31 kts | 267° |
| 2026-05-04 05:55 | 48.99374 | 2.57349 | 361 ft | 28 kts | 285° |
| 2026-05-04 05:55 | 48.99426 | 2.57070 | 365 ft | 28 kts | 285° |
| 2026-05-04 05:55 | 48.99459 | 2.56895 | 363 ft | 14 kts | 286° |
| 2026-05-04 05:55 | 48.99476 | 2.56749 | 363 ft | 14 kts | 272° |
| 2026-05-04 05:56 | 48.99531 | 2.56641 | 367 ft | 14 kts | 343° |
| 2026-05-04 05:56 | 48.99627 | 2.56623 | 367 ft | 14 kts | 355° |
| 2026-05-04 05:56 | 48.99725 | 2.56611 | 363 ft | 14 kts | 355° |
| 2026-05-04 05:56 | 48.99791 | 2.56603 | 364 ft | 0 kts | 355° |
| 2026-05-04 05:57 | 48.99808 | 2.56600 | 361 ft | 6 kts | 355° |
| 2026-05-04 05:57 | 48.99875 | 2.56592 | 365 ft | 13 kts | 355° |
| 2026-05-04 05:57 | 49.00209 | 2.56824 | 366 ft | 0 kts | 355° |
| 2026-05-04 05:57 | 49.00200 | 2.56825 | 366 ft | 0 kts | 355° |